createdAt,value
2018-03-16T00:01:16.407Z,16.97
2018-03-16T00:03:43.978Z,22.43
2018-03-16T00:06:11.542Z,24.73
2018-03-16T00:08:39.119Z,22.20
2018-03-16T00:11:06.864Z,19.97
2018-03-16T00:13:34.581Z,17.10
2018-03-16T00:16:02.156Z,15.73
2018-03-16T00:18:29.709Z,13.70
2018-03-16T00:20:57.437Z,10.70
2018-03-16T00:23:25.157Z,10.70
2018-03-16T00:25:52.726Z,11.17
2018-03-16T00:28:20.290Z,10.07
2018-03-16T00:30:47.870Z,11.70
2018-03-16T00:33:15.426Z,11.33
2018-03-16T00:35:43.248Z,10.10
2018-03-16T00:38:10.810Z,10.30
2018-03-16T00:40:38.582Z,10.70
2018-03-16T00:43:06.149Z,11.40
2018-03-16T00:45:33.717Z,9.27
2018-03-16T00:48:01.296Z,12.97
2018-03-16T00:50:29.054Z,13.30
2018-03-16T00:52:56.696Z,11.97
2018-03-16T00:55:24.492Z,12.47
2018-03-16T00:57:52.078Z,13.00
2018-03-16T01:00:19.648Z,13.27
2018-03-16T01:02:47.335Z,12.13
2018-03-16T01:05:15.060Z,10.67
2018-03-16T01:07:42.670Z,10.80
2018-03-16T01:10:10.243Z,12.23
2018-03-16T01:12:37.813Z,12.90
2018-03-16T01:15:05.385Z,12.73
2018-03-16T01:17:32.942Z,11.83
2018-03-16T01:20:00.513Z,12.73
2018-03-16T01:22:28.076Z,12.17
2018-03-16T01:24:55.694Z,12.77
2018-03-16T01:27:23.264Z,11.20
2018-03-16T01:29:50.938Z,10.40
2018-03-16T01:32:18.536Z,11.20
2018-03-16T01:34:46.199Z,11.63
2018-03-16T01:37:13.992Z,9.60
2018-03-16T01:39:41.541Z,10.63
2018-03-16T01:42:09.115Z,11.43
2018-03-16T01:44:36.674Z,10.90
2018-03-16T01:47:04.254Z,11.80
2018-03-16T01:49:31.893Z,14.37
2018-03-16T01:51:59.450Z,14.33
2018-03-16T01:54:27.219Z,13.93
2018-03-16T01:56:54.775Z,13.97
2018-03-16T01:59:22.520Z,14.10
2018-03-16T02:01:50.242Z,13.90
2018-03-16T02:04:17.969Z,14.10
2018-03-16T02:06:45.712Z,14.53
2018-03-16T02:09:13.267Z,13.80
2018-03-16T02:11:40.838Z,14.47
2018-03-16T02:14:08.553Z,14.37
2018-03-16T02:16:36.161Z,12.80
2018-03-16T02:19:03.879Z,12.27
2018-03-16T02:21:31.454Z,11.97
2018-03-16T02:23:59.014Z,11.47
2018-03-16T02:26:26.757Z,11.97
2018-03-16T02:28:54.322Z,12.03
2018-03-16T02:31:21.895Z,13.77
2018-03-16T02:33:49.465Z,13.93
2018-03-16T02:36:17.192Z,11.50
2018-03-16T02:38:44.942Z,12.43
2018-03-16T02:41:12.527Z,13.43
2018-03-16T02:43:40.247Z,13.17
2018-03-16T02:46:07.826Z,13.73
2018-03-16T02:48:35.615Z,13.80
2018-03-16T02:51:03.435Z,15.63
2018-03-16T02:53:31.252Z,16.17
2018-03-16T02:55:59.069Z,16.87
2018-03-16T02:58:26.621Z,17.87
2018-03-16T03:00:54.294Z,17.87
2018-03-16T03:03:21.888Z,17.17
2018-03-16T03:05:49.642Z,16.67
2018-03-16T03:08:17.214Z,18.47
2018-03-16T03:10:44.780Z,23.97
2018-03-16T03:13:12.596Z,23.97
2018-03-16T03:15:40.237Z,21.53
2018-03-16T03:18:07.812Z,21.00
2018-03-16T03:20:35.553Z,18.47
2018-03-16T03:23:03.369Z,17.77
2018-03-16T03:25:30.940Z,28.90
2018-03-16T03:27:58.497Z,30.43
2018-03-16T03:30:26.223Z,23.80
2018-03-16T03:32:54.042Z,18.93
2018-03-16T03:35:21.598Z,18.57
2018-03-16T03:37:49.380Z,18.30
2018-03-16T03:40:16.946Z,18.43
2018-03-16T03:42:44.510Z,19.07
2018-03-16T03:45:12.233Z,21.43
2018-03-16T03:47:39.805Z,28.53
2018-03-16T03:50:07.362Z,24.80
2018-03-16T03:52:35.185Z,18.97
2018-03-16T03:55:02.742Z,19.50
2018-03-16T03:57:30.306Z,21.90
2018-03-16T03:59:57.890Z,22.27
2018-03-16T04:02:25.525Z,21.57
2018-03-16T04:04:53.374Z,23.80
2018-03-16T04:07:20.929Z,18.20
2018-03-16T04:09:48.496Z,16.13
2018-03-16T04:12:16.054Z,18.10
2018-03-16T04:14:43.622Z,17.50
2018-03-16T04:17:11.174Z,15.80
2018-03-16T04:19:38.766Z,18.07
2018-03-16T04:22:06.338Z,16.47
2018-03-16T04:24:34.118Z,16.83
2018-03-16T04:27:01.673Z,17.33
2018-03-16T04:29:29.283Z,17.67
2018-03-16T04:31:57.072Z,18.60
2018-03-16T04:34:24.991Z,19.20
2018-03-16T04:36:52.551Z,20.30
2018-03-16T04:39:20.327Z,20.10
2018-03-16T04:41:47.895Z,19.87
2018-03-16T04:44:15.666Z,21.07
2018-03-16T04:46:43.274Z,20.50
2018-03-16T04:49:10.838Z,19.40
2018-03-16T04:51:38.462Z,18.77
2018-03-16T04:54:06.208Z,18.80
2018-03-16T04:56:33.773Z,17.53
2018-03-16T04:59:01.346Z,18.13
2018-03-16T05:01:28.906Z,17.93
2018-03-16T05:03:56.707Z,18.97
2018-03-16T05:06:24.271Z,21.90
2018-03-16T05:08:51.924Z,22.57
2018-03-16T05:11:19.480Z,22.63
2018-03-16T05:13:47.100Z,25.67
2018-03-16T05:16:14.896Z,24.27
2018-03-16T05:18:42.474Z,24.53
2018-03-16T05:21:10.050Z,21.57
2018-03-16T05:23:37.610Z,22.13
2018-03-16T05:26:05.286Z,21.03
2018-03-16T05:28:32.842Z,19.73
2018-03-16T05:31:00.409Z,18.80
2018-03-16T05:33:27.987Z,20.17
2018-03-16T05:35:55.586Z,20.37
2018-03-16T05:38:23.251Z,20.93
2018-03-16T05:40:50.854Z,22.33
2018-03-16T05:43:18.423Z,25.60
2018-03-16T05:45:46.311Z,25.67
2018-03-16T05:48:14.130Z,25.33
2018-03-16T05:50:41.695Z,24.80
2018-03-16T05:53:09.315Z,22.40
2018-03-16T05:55:36.882Z,21.13
2018-03-16T05:58:04.479Z,21.17
2018-03-16T06:00:32.078Z,22.73
2018-03-16T06:02:59.638Z,22.33
2018-03-16T06:05:27.444Z,22.03
2018-03-16T06:07:55.064Z,24.27
2018-03-16T06:10:22.792Z,24.43
2018-03-16T06:12:50.350Z,24.67
2018-03-16T06:15:18.095Z,26.40
2018-03-16T06:17:45.812Z,27.87
2018-03-16T06:20:13.445Z,28.77
2018-03-16T06:22:41.060Z,27.00
2018-03-16T06:25:08.682Z,25.90
2018-03-16T06:27:36.257Z,24.80
2018-03-16T06:30:03.899Z,24.03
2018-03-16T06:32:31.477Z,24.60
2018-03-16T06:34:59.043Z,26.27
2018-03-16T06:37:26.889Z,27.93
2018-03-16T06:39:54.455Z,29.37
2018-03-16T06:42:22.201Z,25.23
2018-03-16T06:44:49.912Z,23.47
2018-03-16T06:47:17.763Z,22.33
2018-03-16T06:49:45.338Z,21.83
2018-03-16T06:52:13.071Z,20.23
2018-03-16T06:54:40.817Z,22.97
2018-03-16T06:57:08.402Z,21.90
2018-03-16T06:59:36.026Z,26.50
2018-03-16T07:02:03.865Z,26.97
2018-03-16T07:04:31.432Z,26.03
2018-03-16T07:07:00.011Z,24.60
2018-03-16T07:09:27.829Z,24.40
2018-03-16T07:11:55.438Z,27.17
2018-03-16T07:14:22.994Z,25.50
2018-03-16T07:16:50.675Z,25.13
2018-03-16T07:19:18.504Z,25.70
2018-03-16T07:21:46.151Z,25.97
2018-03-16T07:24:13.741Z,26.20
2018-03-16T07:26:41.313Z,26.00
2018-03-16T07:29:08.894Z,27.93
2018-03-16T07:31:36.458Z,25.17
2018-03-16T07:34:04.045Z,23.83
2018-03-16T07:36:31.606Z,23.33
2018-03-16T07:38:59.178Z,21.77
2018-03-16T07:41:26.962Z,22.70
2018-03-16T07:43:54.578Z,24.30
2018-03-16T07:46:22.308Z,23.27
2018-03-16T07:48:49.907Z,32.87
2018-03-16T07:51:17.717Z,67.17
2018-03-16T07:53:45.273Z,59.50
2018-03-16T07:56:13.079Z,53.40
2018-03-16T07:58:40.679Z,32.80
2018-03-16T08:01:08.417Z,23.20
2018-03-16T08:03:35.997Z,23.23
2018-03-16T08:06:03.844Z,22.20
2018-03-16T08:08:31.414Z,21.17
2018-03-16T08:10:58.978Z,22.53
2018-03-16T08:13:26.798Z,22.43
2018-03-16T08:15:54.407Z,23.50
2018-03-16T08:18:22.219Z,22.80
2018-03-16T08:20:49.814Z,22.30
2018-03-16T08:23:17.412Z,18.10
2018-03-16T08:25:45.005Z,17.47
2018-03-16T08:28:12.572Z,20.33
2018-03-16T08:30:40.378Z,20.33
2018-03-16T08:33:08.245Z,23.40
2018-03-16T08:35:35.813Z,24.77
2018-03-16T08:38:03.394Z,25.37
2018-03-16T08:40:30.978Z,23.57
2018-03-16T08:42:58.554Z,29.00
2018-03-16T08:45:26.148Z,27.63
2018-03-16T08:47:53.740Z,30.93
2018-03-16T08:50:21.326Z,30.27
2018-03-16T08:52:48.987Z,28.27
2018-03-16T08:55:16.553Z,24.17
2018-03-16T08:57:44.123Z,8.83
2018-03-16T09:00:11.729Z,14.03
2018-03-16T09:02:39.358Z,10.17
2018-03-16T09:05:06.954Z,8.17
2018-03-16T09:07:34.692Z,5.73
2018-03-16T09:10:02.412Z,5.60
2018-03-16T09:12:30.059Z,5.50
2018-03-16T09:14:57.749Z,5.37
2018-03-16T09:17:25.318Z,5.37
2018-03-16T09:19:53.085Z,41.83
2018-03-16T09:22:20.678Z,6.23
2018-03-16T09:24:48.255Z,8.57
2018-03-16T09:27:16.137Z,5.93
2018-03-16T09:29:43.749Z,8.30
2018-03-16T09:32:11.369Z,6.27
2018-03-16T09:34:38.930Z,6.53
2018-03-16T09:37:06.563Z,5.17
2018-03-16T09:39:34.327Z,5.87
2018-03-16T09:42:02.146Z,5.10
2018-03-16T09:44:29.726Z,30.73
2018-03-16T09:46:57.304Z,6.67
2018-03-16T09:49:25.102Z,4.87
2018-03-16T09:51:52.682Z,4.93
2018-03-16T09:54:20.327Z,5.10
2018-03-16T09:56:47.899Z,5.13
2018-03-16T09:59:15.469Z,5.93
2018-03-16T10:01:43.038Z,5.23
2018-03-16T10:04:10.618Z,4.73
2018-03-16T10:06:38.265Z,4.33
2018-03-16T10:09:05.882Z,3.27
2018-03-16T10:11:33.442Z,2.93
2018-03-16T10:14:01.010Z,3.03
2018-03-16T10:16:28.800Z,4.30
2018-03-16T10:18:56.591Z,3.53
2018-03-16T10:21:24.308Z,3.20
2018-03-16T10:23:52.147Z,3.67
2018-03-16T10:26:19.718Z,3.90
2018-03-16T10:28:47.279Z,3.70
2018-03-16T10:31:14.872Z,3.50
2018-03-16T10:33:42.430Z,3.50
2018-03-16T10:36:09.992Z,3.27
2018-03-16T10:38:37.545Z,3.00
2018-03-16T10:41:05.381Z,3.27
2018-03-16T10:43:32.938Z,3.20
2018-03-16T10:46:00.504Z,2.87
2018-03-16T10:48:28.101Z,3.27
2018-03-16T10:50:55.693Z,2.50
2018-03-16T10:53:23.467Z,2.27
2018-03-16T10:55:51.288Z,2.57
2018-03-16T10:58:19.002Z,2.43
2018-03-16T11:00:52.006Z,2.50
2018-03-16T11:03:19.738Z,2.53
2018-03-16T11:05:52.727Z,3.17
2018-03-16T11:08:25.848Z,3.10
2018-03-16T11:10:53.442Z,4.67
2018-03-16T11:13:21.006Z,2.50
2018-03-16T11:15:48.571Z,2.00
2018-03-16T11:18:16.303Z,2.07
2018-03-16T11:20:44.125Z,2.00
2018-03-16T11:23:11.841Z,4.63
2018-03-16T11:25:39.464Z,2.67
2018-03-16T11:28:07.050Z,2.03
2018-03-16T11:30:34.798Z,2.67
2018-03-16T11:33:02.614Z,3.73
2018-03-16T11:35:30.180Z,3.33
2018-03-16T11:37:57.770Z,3.67
2018-03-16T11:40:25.348Z,2.50
2018-03-16T11:42:52.977Z,2.70
2018-03-16T11:45:20.696Z,2.70
2018-03-16T11:47:48.253Z,3.90
2018-03-16T11:50:15.922Z,3.50
2018-03-16T11:52:43.494Z,2.27
2018-03-16T11:55:11.246Z,2.23
2018-03-16T11:57:38.962Z,2.70
2018-03-16T12:00:06.753Z,2.43
2018-03-16T12:02:34.530Z,2.00
2018-03-16T12:05:02.102Z,2.60
2018-03-16T12:07:29.885Z,2.53
2018-03-16T12:09:57.687Z,2.80
2018-03-16T12:12:25.346Z,2.47
2018-03-16T12:14:52.900Z,2.60
2018-03-16T12:17:20.530Z,2.83
2018-03-16T12:19:48.357Z,2.50
2018-03-16T12:22:16.484Z,2.50
2018-03-16T12:24:44.281Z,2.63
2018-03-16T12:27:12.014Z,2.17
2018-03-16T12:29:39.583Z,2.77
2018-03-16T12:32:07.351Z,2.57
2018-03-16T12:34:35.202Z,2.70
2018-03-16T12:37:03.006Z,2.43
2018-03-16T12:39:30.581Z,2.13
2018-03-16T12:41:58.202Z,2.70
2018-03-16T12:44:25.823Z,2.60
2018-03-16T12:46:53.413Z,2.80
2018-03-16T12:49:21.177Z,2.70
2018-03-16T12:51:48.755Z,3.40
2018-03-16T12:54:16.515Z,3.10
2018-03-16T12:56:44.126Z,3.10
2018-03-16T12:59:11.680Z,2.90
2018-03-16T13:01:39.359Z,5.30
2018-03-16T13:04:07.186Z,3.70
2018-03-16T13:06:34.751Z,3.73
2018-03-16T13:09:02.517Z,3.30
2018-03-16T13:11:30.213Z,3.70
2018-03-16T13:13:57.791Z,3.90
2018-03-16T13:16:25.584Z,3.50
2018-03-16T13:18:53.239Z,4.07
2018-03-16T13:21:20.806Z,3.87
2018-03-16T13:23:48.531Z,3.90
2018-03-16T13:26:16.119Z,4.10
2018-03-16T13:28:43.675Z,3.80
2018-03-16T13:31:11.298Z,4.77
2018-03-16T13:33:39.106Z,4.40
2018-03-16T13:36:06.922Z,4.67
2018-03-16T13:38:34.740Z,4.33
2018-03-16T13:41:02.388Z,4.10
2018-03-16T13:43:30.177Z,4.20
2018-03-16T13:45:57.752Z,3.90
2018-03-16T13:48:25.487Z,3.27
2018-03-16T13:50:53.046Z,4.00
2018-03-16T13:53:20.614Z,5.17
2018-03-16T13:55:48.367Z,4.20
2018-03-16T13:58:16.097Z,3.83
2018-03-16T14:00:43.672Z,4.40
2018-03-16T14:03:12.382Z,4.23
2018-03-16T14:05:39.950Z,5.50
2018-03-16T14:08:07.551Z,23.83
2018-03-16T14:10:35.238Z,15.73
2018-03-16T14:13:02.814Z,3.63
2018-03-16T14:15:30.615Z,3.17
2018-03-16T14:17:58.223Z,3.63
2018-03-16T14:20:25.794Z,3.20
2018-03-16T14:22:53.358Z,3.67
2018-03-16T14:25:21.066Z,4.60
2018-03-16T14:27:48.631Z,3.60
2018-03-16T14:30:16.457Z,3.20
2018-03-16T14:32:44.243Z,4.17
2018-03-16T14:35:12.059Z,4.20
2018-03-16T14:37:39.635Z,4.23
2018-03-16T14:40:07.289Z,4.00
2018-03-16T14:42:34.866Z,3.87
2018-03-16T14:45:02.427Z,2.73
2018-03-16T14:47:29.986Z,3.07
2018-03-16T14:49:57.559Z,3.03
2018-03-16T14:52:25.284Z,3.07
2018-03-16T14:54:53.106Z,3.87
2018-03-16T14:57:20.714Z,3.60
2018-03-16T14:59:48.539Z,3.93
2018-03-16T15:02:16.271Z,3.20
2018-03-16T15:04:44.076Z,3.97
2018-03-16T15:07:11.866Z,6.47
2018-03-16T15:09:39.583Z,3.40
2018-03-16T15:12:07.150Z,3.70
2018-03-16T15:14:34.735Z,4.67
2018-03-16T15:17:02.391Z,3.93
2018-03-16T15:19:29.967Z,3.90
2018-03-16T15:21:57.596Z,4.00
2018-03-16T15:24:25.159Z,3.43
2018-03-16T15:26:52.764Z,3.87
2018-03-16T15:29:20.448Z,4.20
2018-03-16T15:31:48.007Z,4.13
2018-03-16T15:34:15.582Z,4.97
2018-03-16T15:36:43.313Z,5.00
2018-03-16T15:39:10.878Z,4.00
2018-03-16T15:41:38.446Z,4.00
2018-03-16T15:44:06.082Z,3.80
2018-03-16T15:46:33.882Z,4.10
2018-03-16T15:49:01.476Z,3.93
2018-03-16T15:51:29.046Z,3.80
2018-03-16T15:53:56.602Z,6.77
2018-03-16T15:56:24.178Z,5.10
2018-03-16T15:58:51.744Z,4.60
2018-03-16T16:01:19.491Z,9.83
2018-03-16T16:03:47.075Z,3.87
2018-03-16T16:06:14.889Z,4.37
2018-03-16T16:08:42.441Z,4.37
2018-03-16T16:11:10.054Z,4.03
2018-03-16T16:13:37.632Z,5.00
2018-03-16T16:16:05.287Z,3.60
2018-03-16T16:18:33.015Z,4.63
2018-03-16T16:21:00.836Z,6.50
2018-03-16T16:23:28.447Z,3.60
2018-03-16T16:25:56.014Z,3.90
2018-03-16T16:28:23.590Z,3.97
2018-03-16T16:30:51.192Z,3.93
2018-03-16T16:33:18.752Z,3.80
2018-03-16T16:35:46.332Z,3.20
2018-03-16T16:38:13.899Z,3.87
2018-03-16T16:40:41.468Z,3.40
2018-03-16T16:43:09.026Z,4.40
2018-03-16T16:45:36.813Z,7.07
2018-03-16T16:48:04.391Z,23.13
2018-03-16T16:50:32.008Z,7.70
2018-03-16T16:52:59.576Z,6.40
2018-03-16T16:55:27.134Z,7.17
2018-03-16T16:57:54.717Z,5.87
2018-03-16T17:00:22.520Z,5.80
2018-03-16T17:02:50.086Z,4.93
2018-03-16T17:05:17.643Z,4.80
2018-03-16T17:07:45.215Z,3.93
2018-03-16T17:10:12.972Z,3.87
2018-03-16T17:12:40.687Z,5.60
2018-03-16T17:15:08.432Z,7.40
2018-03-16T17:17:36.056Z,7.80
2018-03-16T17:20:03.865Z,7.93
2018-03-16T17:22:31.436Z,6.00
2018-03-16T17:24:59.000Z,5.87
2018-03-16T17:27:26.740Z,6.13
2018-03-16T17:29:54.312Z,3.90
2018-03-16T17:32:24.334Z,4.73
2018-03-16T17:34:49.897Z,8.97
2018-03-16T17:37:18.351Z,9.47
2018-03-16T17:39:46.115Z,13.47
2018-03-16T17:42:13.931Z,8.50
2018-03-16T17:44:41.755Z,12.03
2018-03-16T17:47:09.322Z,4.33
2018-03-16T17:49:37.086Z,7.37
2018-03-16T17:52:04.774Z,3.80
2018-03-16T17:54:32.338Z,7.60
2018-03-16T17:57:00.142Z,11.07
2018-03-16T17:59:27.750Z,6.00
2018-03-16T18:01:55.308Z,7.43
2018-03-16T18:04:22.985Z,7.97
2018-03-16T18:06:50.562Z,3.83
2018-03-16T18:09:18.331Z,4.83
2018-03-16T18:11:45.933Z,5.13
2018-03-16T18:14:13.767Z,4.40
2018-03-16T18:16:41.322Z,5.10
2018-03-16T18:19:08.996Z,4.87
2018-03-16T18:21:36.721Z,5.80
2018-03-16T18:24:04.318Z,3.23
2018-03-16T18:26:31.902Z,3.30
2018-03-16T18:28:59.649Z,3.67
2018-03-16T18:31:27.237Z,5.50
2018-03-16T18:33:54.902Z,5.03
2018-03-16T18:36:22.471Z,4.27
2018-03-16T18:38:50.032Z,4.70
2018-03-16T18:41:17.835Z,4.80
2018-03-16T18:43:45.413Z,4.10
2018-03-16T18:46:13.201Z,4.20
2018-03-16T18:48:40.770Z,4.50
2018-03-16T18:51:08.455Z,4.63
2018-03-16T18:53:36.256Z,12.80
2018-03-16T18:56:04.074Z,5.07
2018-03-16T18:58:31.659Z,8.37
2018-03-16T19:00:59.238Z,7.13
2018-03-16T19:03:27.128Z,13.33
2018-03-16T19:05:54.865Z,9.33
2018-03-16T19:08:22.490Z,7.97
2018-03-16T19:10:50.284Z,6.77
2018-03-16T19:13:18.102Z,4.90
2018-03-16T19:15:45.921Z,7.57
2018-03-16T19:18:13.490Z,11.90
2018-03-16T19:20:41.246Z,10.43
2018-03-16T19:23:08.975Z,8.43
2018-03-16T19:25:36.595Z,32.27
2018-03-16T19:28:04.222Z,24.23
2018-03-16T19:30:31.795Z,11.23
2018-03-16T19:32:59.547Z,11.73
2018-03-16T19:35:27.813Z,11.80
2018-03-16T19:37:55.736Z,7.53
2018-03-16T19:40:23.505Z,7.60
2018-03-16T19:42:51.066Z,8.37
2018-03-16T19:45:18.626Z,4.73
2018-03-16T19:47:46.458Z,10.03
2018-03-16T19:50:14.023Z,6.70
2018-03-16T19:52:41.675Z,6.00
2018-03-16T19:55:09.382Z,5.50
2018-03-16T19:57:36.983Z,4.07
2018-03-16T20:00:04.760Z,3.70
2018-03-16T20:02:32.569Z,4.73
2018-03-16T20:05:00.387Z,5.83
2018-03-16T20:07:28.206Z,3.60
2018-03-16T20:09:56.842Z,4.37
2018-03-16T20:12:24.797Z,4.53
2018-03-16T20:14:52.351Z,4.97
2018-03-16T20:17:20.053Z,5.30
2018-03-16T20:19:47.611Z,4.97
2018-03-16T20:22:15.210Z,3.50
2018-03-16T20:24:42.764Z,4.30
2018-03-16T20:27:10.365Z,8.53
2018-03-16T20:29:37.938Z,7.17
2018-03-16T20:32:05.518Z,13.77
2018-03-16T20:34:33.198Z,11.50
2018-03-16T20:37:01.025Z,8.50
2018-03-16T20:39:28.843Z,11.43
2018-03-16T20:41:56.462Z,11.67
2018-03-16T20:44:24.281Z,6.37
2018-03-16T20:46:52.099Z,8.03
2018-03-16T20:49:19.666Z,7.17
2018-03-16T20:51:47.334Z,10.77
2018-03-16T20:54:15.153Z,16.57
2018-03-16T20:56:42.943Z,14.37
2018-03-16T20:59:10.510Z,10.87
2018-03-16T21:01:38.365Z,20.97
2018-03-16T21:04:05.976Z,7.23
2018-03-16T21:06:33.626Z,17.83
2018-03-16T21:09:01.194Z,6.90
2018-03-16T21:11:28.777Z,7.33
2018-03-16T21:13:56.600Z,13.77
2018-03-16T21:16:24.417Z,6.87
2018-03-16T21:18:51.976Z,6.90
2018-03-16T21:21:19.576Z,7.10
2018-03-16T21:23:47.291Z,5.10
2018-03-16T21:26:15.092Z,5.00
2018-03-16T21:28:42.907Z,5.83
2018-03-16T21:31:10.479Z,7.40
2018-03-16T21:33:38.055Z,8.40
2018-03-16T21:36:05.648Z,8.23
2018-03-16T21:38:33.479Z,6.13
2018-03-16T21:41:01.045Z,4.00
2018-03-16T21:43:28.708Z,5.80
2018-03-16T21:45:56.266Z,5.03
2018-03-16T21:48:23.826Z,6.47
2018-03-16T21:50:51.410Z,4.77
2018-03-16T21:53:19.187Z,4.47
2018-03-16T21:55:46.787Z,3.63
2018-03-16T21:58:14.523Z,5.40
2018-03-16T22:00:42.348Z,4.53
2018-03-16T22:03:09.918Z,4.80
2018-03-16T22:05:37.474Z,3.63
2018-03-16T22:08:05.123Z,3.67
2018-03-16T22:10:32.689Z,6.63
2018-03-16T22:13:00.291Z,4.73
2018-03-16T22:15:28.049Z,3.93
2018-03-16T22:17:55.606Z,3.47
2018-03-16T22:20:23.171Z,3.73
2018-03-16T22:22:50.744Z,5.47
2018-03-16T22:25:18.314Z,3.37
2018-03-16T22:27:46.028Z,3.50
2018-03-16T22:30:13.857Z,3.60
2018-03-16T22:32:41.418Z,3.33
2018-03-16T22:35:09.193Z,3.20
2018-03-16T22:37:36.759Z,3.20
2018-03-16T22:40:04.632Z,5.00
2018-03-16T22:42:32.202Z,4.63
2018-03-16T22:44:59.750Z,6.40
2018-03-16T22:47:27.585Z,4.70
2018-03-16T22:49:55.138Z,4.50
2018-03-16T22:52:22.698Z,4.20
2018-03-16T22:54:50.298Z,3.27
2018-03-16T22:57:17.900Z,3.97
2018-03-16T22:59:45.474Z,3.97
2018-03-16T23:02:13.077Z,6.77
2018-03-16T23:04:40.687Z,3.70
2018-03-16T23:07:08.258Z,3.53
2018-03-16T23:09:36.010Z,9.17
2018-03-16T23:12:03.763Z,5.37
2018-03-16T23:14:31.322Z,8.03
2018-03-16T23:16:58.902Z,10.60
2018-03-16T23:19:26.474Z,13.33
2018-03-16T23:21:54.110Z,9.23
2018-03-16T23:24:21.857Z,7.73
2018-03-16T23:26:49.671Z,8.17
2018-03-16T23:29:17.491Z,7.07
2018-03-16T23:31:45.308Z,25.13
2018-03-16T23:34:12.917Z,10.13
2018-03-16T23:36:40.536Z,4.63
2018-03-16T23:39:08.262Z,3.70
2018-03-16T23:41:35.949Z,3.77
2018-03-16T23:44:03.799Z,4.00
2018-03-16T23:46:31.364Z,3.33
2018-03-16T23:48:58.930Z,4.10
2018-03-16T23:51:26.498Z,4.20
2018-03-16T23:53:54.064Z,4.10
2018-03-16T23:56:21.888Z,4.63
2018-03-16T23:58:49.460Z,4.30
